createdAt,value
2023-02-28T00:00:46.312Z,101579.50
2023-02-28T00:03:48.966Z,101587.56
2023-02-28T00:06:51.330Z,101589.28
2023-02-28T00:09:54.155Z,101585.72
2023-02-28T00:13:00.001Z,101587.31
2023-02-28T00:16:04.058Z,101593.25
2023-02-28T00:19:06.388Z,101599.97
2023-02-28T00:22:09.057Z,101603.63
2023-02-28T00:25:12.837Z,101617.16
2023-02-28T00:28:15.468Z,101606.63
2023-02-28T00:31:17.889Z,101614.28
2023-02-28T00:34:20.702Z,101615.94
2023-02-28T00:37:23.382Z,101615.06
2023-02-28T00:40:26.503Z,101613.47
2023-02-28T00:43:29.127Z,101618.38
2023-02-28T00:46:31.798Z,101615.84
2023-02-28T00:49:34.545Z,101627.81
2023-02-28T00:52:38.293Z,101620.19
2023-02-28T00:55:40.663Z,101618.97
2023-02-28T00:58:43.493Z,101615.91
2023-02-28T01:01:46.822Z,101623.41
2023-02-28T01:04:50.098Z,101622.66
2023-02-28T01:07:52.570Z,101624.47
2023-02-28T01:10:55.286Z,101627.88
2023-02-28T01:13:58.109Z,101635.00
2023-02-28T01:17:00.765Z,101626.37
2023-02-28T01:20:04.082Z,101621.09
2023-02-28T01:23:09.893Z,101626.37
2023-02-28T01:26:13.573Z,101628.28
2023-02-28T01:29:16.329Z,101624.56
2023-02-28T01:32:18.717Z,101622.66
2023-02-28T01:35:21.654Z,101626.91
2023-02-28T01:38:23.948Z,101633.66
2023-02-28T01:41:28.374Z,101621.19
2023-02-28T01:44:49.755Z,101622.84
2023-02-28T01:47:53.650Z,101629.56
2023-02-28T01:50:57.658Z,101627.88
2023-02-28T01:54:02.564Z,101624.41
2023-02-28T01:57:07.001Z,101630.34
2023-02-28T02:00:10.243Z,101623.44
2023-02-28T02:03:19.954Z,101624.41
2023-02-28T02:06:24.301Z,101620.28
2023-02-28T02:09:26.691Z,101622.19
2023-02-28T02:12:41.014Z,101619.81
2023-02-28T02:15:59.188Z,101615.56
2023-02-28T02:19:15.687Z,101622.66
2023-02-28T02:22:36.523Z,101618.38
2023-02-28T02:26:11.426Z,101617.31
2023-02-28T02:29:16.856Z,101614.88
2023-02-28T02:32:42.427Z,101609.03
2023-02-28T02:36:03.692Z,101611.44
2023-02-28T02:39:12.095Z,101612.19
2023-02-28T02:42:18.483Z,101613.97
2023-02-28T02:45:24.899Z,101613.75
2023-02-28T02:48:31.990Z,101615.34
2023-02-28T02:51:35.206Z,101618.12
2023-02-28T02:54:39.331Z,101620.91
2023-02-28T02:57:47.512Z,101629.72
2023-02-28T03:00:54.166Z,101619.94
2023-02-28T03:04:02.108Z,101619.13
2023-02-28T03:07:04.934Z,101624.13
2023-02-28T03:10:27.340Z,101618.88
2023-02-28T03:13:43.328Z,101621.59
2023-02-28T03:17:18.420Z,101620.75
2023-02-28T03:20:32.425Z,101630.03
2023-02-28T03:23:49.327Z,101629.09
2023-02-28T03:26:57.137Z,101629.78
2023-02-28T03:30:04.998Z,101636.59
2023-02-28T03:33:28.214Z,101631.50
2023-02-28T03:36:33.381Z,101628.16
2023-02-28T03:39:43.201Z,101630.66
2023-02-28T03:42:48.617Z,101628.34
2023-02-28T03:45:52.286Z,101628.38
2023-02-28T03:49:17.982Z,101624.16
2023-02-28T03:52:23.375Z,101632.00
2023-02-28T03:55:25.747Z,101629.25
2023-02-28T03:58:34.130Z,101629.94
2023-02-28T04:01:38.867Z,101631.00
2023-02-28T04:04:46.168Z,101632.00
2023-02-28T04:07:49.260Z,101628.53
2023-02-28T04:11:18.230Z,101627.63
2023-02-28T04:14:20.795Z,101631.34
2023-02-28T04:17:23.342Z,101622.12
2023-02-28T04:20:25.797Z,101628.16
2023-02-28T04:23:28.699Z,101630.59
2023-02-28T04:26:32.025Z,101628.78
2023-02-28T04:29:34.811Z,101620.22
2023-02-28T04:32:37.146Z,101622.00
2023-02-28T04:35:39.950Z,101611.75
2023-02-28T04:38:42.560Z,101612.31
2023-02-28T04:41:45.762Z,101612.34
2023-02-28T04:44:48.336Z,101613.34
2023-02-28T04:47:51.086Z,101615.91
2023-02-28T04:50:53.743Z,101609.84
2023-02-28T04:53:56.610Z,101609.09
2023-02-28T04:56:59.006Z,101608.31
2023-02-28T05:00:01.874Z,101613.63
2023-02-28T05:03:07.248Z,101610.91
2023-02-28T05:06:10.599Z,101616.00
2023-02-28T05:09:13.153Z,101609.03
2023-02-28T05:12:15.847Z,101611.75
2023-02-28T05:15:18.357Z,101616.34
2023-02-28T05:18:20.980Z,101613.72
2023-02-28T05:21:28.674Z,101620.44
2023-02-28T05:24:31.697Z,101628.84
2023-02-28T05:27:34.227Z,101625.47
2023-02-28T05:30:37.174Z,101630.31
2023-02-28T05:33:40.571Z,101627.00
2023-02-28T05:36:43.387Z,101629.50
2023-02-28T05:39:45.879Z,101629.38
2023-02-28T05:42:48.843Z,101636.22
2023-02-28T05:45:51.236Z,101635.47
2023-02-28T05:48:54.135Z,101637.19
2023-02-28T05:51:56.521Z,101639.06
2023-02-28T05:54:59.016Z,101637.69
2023-02-28T05:58:01.414Z,101645.62
2023-02-28T06:01:20.794Z,101643.97
2023-02-28T06:04:31.538Z,101650.03
2023-02-28T06:07:34.832Z,101648.47
2023-02-28T06:10:37.710Z,101652.72
2023-02-28T06:13:40.104Z,101656.47
2023-02-28T06:16:42.713Z,101657.56
2023-02-28T06:19:45.078Z,101657.97
2023-02-28T06:22:50.238Z,101655.31
2023-02-28T06:25:54.061Z,101660.84
2023-02-28T06:28:56.822Z,101663.69
2023-02-28T06:31:59.304Z,101670.78
2023-02-28T06:35:01.959Z,101670.13
2023-02-28T06:38:05.290Z,101665.69
2023-02-28T06:41:08.673Z,101671.16
2023-02-28T06:44:18.358Z,101667.19
2023-02-28T06:47:21.034Z,101665.56
2023-02-28T06:50:23.322Z,101676.19
2023-02-28T06:53:25.989Z,101679.81
2023-02-28T06:56:28.356Z,101677.44
2023-02-28T06:59:31.289Z,101675.97
2023-02-28T07:02:34.407Z,101672.66
2023-02-28T07:05:38.130Z,101672.69
2023-02-28T07:08:42.018Z,101676.66
2023-02-28T07:11:44.812Z,101681.16
2023-02-28T07:14:47.107Z,101678.06
2023-02-28T07:17:49.754Z,101681.13
2023-02-28T07:20:52.508Z,101686.72
2023-02-28T07:23:55.165Z,101695.19
2023-02-28T07:26:57.761Z,101697.63
2023-02-28T07:30:02.610Z,101699.75
2023-02-28T07:33:06.415Z,101699.88
2023-02-28T07:36:15.044Z,101697.87
2023-02-28T07:39:17.396Z,101694.53
2023-02-28T07:42:20.065Z,101695.88
2023-02-28T07:45:22.429Z,101708.31
2023-02-28T07:48:25.234Z,101705.75
2023-02-28T07:51:27.862Z,101702.59
2023-02-28T07:54:30.795Z,101710.53
2023-02-28T07:57:34.125Z,101704.53
2023-02-28T08:00:36.918Z,101705.28
2023-02-28T08:03:40.487Z,101706.97
2023-02-28T08:06:42.830Z,101706.12
2023-02-28T08:09:45.775Z,101703.66
2023-02-28T08:12:48.140Z,101694.91
2023-02-28T08:15:50.794Z,101704.03
2023-02-28T08:18:53.997Z,101702.34
2023-02-28T08:21:57.243Z,101701.75
2023-02-28T08:24:59.548Z,101695.00
2023-02-28T08:28:02.284Z,101697.44
2023-02-28T08:31:12.215Z,101702.78
2023-02-28T08:34:16.227Z,101699.44
2023-02-28T08:37:18.494Z,101698.56
2023-02-28T08:40:25.480Z,101695.88
2023-02-28T08:43:28.476Z,101695.09
2023-02-28T08:46:31.461Z,101694.97
2023-02-28T08:49:33.716Z,101690.78
2023-02-28T08:52:36.357Z,101695.16
2023-02-28T08:55:39.004Z,101702.94
2023-02-28T08:58:42.087Z,101700.25
2023-02-28T09:01:44.745Z,101701.13
2023-02-28T09:04:47.462Z,101687.37
2023-02-28T09:07:51.082Z,101691.63
2023-02-28T09:10:54.178Z,101691.59
2023-02-28T09:13:56.685Z,101694.22
2023-02-28T09:16:59.338Z,101691.56
2023-02-28T09:20:01.731Z,101693.41
2023-02-28T09:23:04.456Z,101698.56
2023-02-28T09:26:07.374Z,101694.25
2023-02-28T09:29:10.211Z,101695.94
2023-02-28T09:32:12.625Z,101695.94
2023-02-28T09:35:17.352Z,101696.91
2023-02-28T09:38:19.719Z,101697.75
2023-02-28T09:41:36.470Z,101696.03
2023-02-28T09:44:43.796Z,101702.91
2023-02-28T09:47:49.490Z,101710.66
2023-02-28T09:50:53.518Z,101704.66
2023-02-28T09:54:01.675Z,101697.69
2023-02-28T09:57:09.581Z,101692.56
2023-02-28T10:00:21.409Z,101686.50
2023-02-28T10:03:28.003Z,101689.06
2023-02-28T10:06:32.567Z,101691.69
2023-02-28T10:09:37.172Z,101693.41
2023-02-28T10:12:41.179Z,101688.22
2023-02-28T10:15:46.842Z,101690.75
2023-02-28T10:18:55.895Z,101687.28
2023-02-28T10:22:04.708Z,101688.22
2023-02-28T10:25:17.516Z,101682.19
2023-02-28T10:28:20.237Z,101678.78
2023-02-28T10:31:24.140Z,101677.00
2023-02-28T10:34:27.835Z,101687.37
2023-02-28T10:37:30.220Z,101675.28
2023-02-28T10:40:36.420Z,101669.25
2023-02-28T10:43:40.062Z,101666.63
2023-02-28T10:46:43.425Z,101662.34
2023-02-28T10:49:50.104Z,101657.13
2023-02-28T10:52:54.258Z,101653.72
2023-02-28T10:56:12.043Z,101647.72
2023-02-28T10:59:14.734Z,101642.53
2023-02-28T11:05:42.959Z,101648.56
2023-02-28T11:08:48.002Z,101639.91
2023-02-28T11:11:51.013Z,101646.81
2023-02-28T11:14:55.977Z,101641.62
2023-02-28T11:18:00.948Z,101644.25
2023-02-28T11:21:04.097Z,101636.47
2023-02-28T11:24:15.481Z,101642.50
2023-02-28T11:27:26.818Z,101642.50
2023-02-28T11:30:32.553Z,101635.50
2023-02-28T11:33:37.962Z,101642.22
2023-02-28T11:36:45.532Z,101625.00
2023-02-28T11:39:47.997Z,101625.84
2023-02-28T11:43:09.530Z,101632.50
2023-02-28T11:46:11.870Z,101621.84
2023-02-28T11:49:14.678Z,101622.97
2023-02-28T11:52:23.573Z,101622.28
2023-02-28T11:55:42.992Z,101628.22
2023-02-28T11:58:51.589Z,101615.31
2023-02-28T12:01:54.406Z,101612.87
2023-02-28T12:05:18.461Z,101618.34
2023-02-28T12:08:39.703Z,101607.16
2023-02-28T12:11:48.422Z,101601.06
2023-02-28T12:14:59.822Z,101597.47
2023-02-28T12:18:14.528Z,101604.47
2023-02-28T12:21:17.062Z,101611.06
2023-02-28T12:24:27.142Z,101598.84
2023-02-28T12:27:32.368Z,101597.25
2023-02-28T12:30:37.269Z,101591.91
2023-02-28T12:33:43.624Z,101579.81
2023-02-28T12:36:47.793Z,101583.25
2023-02-28T12:39:55.945Z,101579.88
2023-02-28T12:43:01.749Z,101572.50
2023-02-28T12:46:09.635Z,101570.53
2023-02-28T12:49:17.117Z,101563.25
2023-02-28T12:52:39.914Z,101565.44
2023-02-28T12:55:58.090Z,101566.75
2023-02-28T12:59:04.674Z,101567.72
2023-02-28T13:02:35.099Z,101566.94
2023-02-28T13:05:37.586Z,101555.94
2023-02-28T13:08:49.186Z,101558.41
2023-02-28T13:11:52.960Z,101559.28
2023-02-28T13:15:05.273Z,101552.41
2023-02-28T13:18:27.865Z,101559.37
2023-02-28T13:21:31.934Z,101554.31
2023-02-28T13:24:40.416Z,101550.78
2023-02-28T13:27:43.766Z,101547.56
2023-02-28T13:31:00.540Z,101548.44
2023-02-28T13:34:13.048Z,101544.12
2023-02-28T13:37:25.519Z,101547.47
2023-02-28T13:40:30.850Z,101546.50
2023-02-28T13:43:51.957Z,101541.53
2023-02-28T13:46:54.729Z,101540.56
2023-02-28T13:50:17.730Z,101528.37
2023-02-28T13:53:30.376Z,101534.34
2023-02-28T13:56:42.056Z,101528.31
2023-02-28T13:59:52.543Z,101522.47
2023-02-28T14:03:18.387Z,101522.25
2023-02-28T14:06:21.025Z,101525.75
2023-02-28T14:09:28.655Z,101517.91
2023-02-28T14:12:50.047Z,101511.09
2023-02-28T14:16:00.337Z,101504.31
2023-02-28T14:19:10.642Z,101508.59
2023-02-28T14:22:39.758Z,101509.50
2023-02-28T14:26:04.463Z,101507.87
2023-02-28T14:29:25.618Z,101505.41
2023-02-28T14:32:31.543Z,101508.88
2023-02-28T14:35:43.199Z,101497.69
2023-02-28T14:38:56.622Z,101495.06
2023-02-28T14:42:04.182Z,101503.69
2023-02-28T14:45:07.129Z,101502.84
2023-02-28T14:48:10.916Z,101503.72
2023-02-28T14:51:19.120Z,101495.94
2023-02-28T14:54:24.949Z,101504.56
2023-02-28T14:57:34.964Z,101502.84
2023-02-28T15:00:38.743Z,101501.97
2023-02-28T15:03:43.040Z,101500.25
2023-02-28T15:06:45.531Z,101498.53
2023-02-28T15:09:48.246Z,101495.09
2023-02-28T15:12:50.756Z,101496.81
2023-02-28T15:16:08.492Z,101503.69
2023-02-28T15:19:26.077Z,101504.59
2023-02-28T15:22:30.914Z,101507.16
2023-02-28T15:25:33.226Z,101507.16
2023-02-28T15:28:36.151Z,101517.47
2023-02-28T15:31:56.441Z,101510.59
2023-02-28T15:35:00.862Z,101503.72
2023-02-28T15:38:15.651Z,101498.53
2023-02-28T15:41:32.299Z,101503.69
2023-02-28T15:44:37.904Z,101498.53
2023-02-28T15:47:40.826Z,101498.50
2023-02-28T15:50:43.715Z,101498.50
2023-02-28T15:54:09.813Z,101500.19
2023-02-28T15:57:32.591Z,101504.41
2023-02-28T16:00:35.653Z,101495.75
2023-02-28T16:03:49.513Z,101500.88
2023-02-28T16:07:00.700Z,101502.56
2023-02-28T16:10:03.825Z,101503.44
2023-02-28T16:13:07.676Z,101506.00
2023-02-28T16:16:16.086Z,101510.28
2023-02-28T16:19:18.728Z,101512.00
2023-02-28T16:22:21.571Z,101516.28
2023-02-28T16:25:35.188Z,101511.91
2023-02-28T16:28:39.218Z,101514.47
2023-02-28T16:31:41.601Z,101515.31
2023-02-28T16:34:44.860Z,101513.50
2023-02-28T16:37:47.604Z,101513.56
2023-02-28T16:40:52.861Z,101519.56
2023-02-28T16:43:59.765Z,101516.03
2023-02-28T16:47:03.314Z,101528.03
2023-02-28T16:50:13.815Z,101523.75
2023-02-28T16:53:22.024Z,101527.12
2023-02-28T16:56:25.197Z,101532.34
2023-02-28T16:59:28.308Z,101537.47
2023-02-28T17:02:31.207Z,101542.63
2023-02-28T17:05:39.443Z,101543.47
2023-02-28T17:08:41.868Z,101545.19
2023-02-28T17:11:45.452Z,101545.25
2023-02-28T17:14:47.752Z,101546.94
2023-02-28T17:17:50.556Z,101548.69
2023-02-28T17:20:54.473Z,101544.41
2023-02-28T17:23:57.722Z,101550.34
2023-02-28T17:27:00.223Z,101543.50
2023-02-28T17:30:04.147Z,101550.38
2023-02-28T17:33:07.194Z,101548.59
2023-02-28T17:36:14.035Z,101556.34
2023-02-28T17:39:20.820Z,101558.03
2023-02-28T17:42:23.634Z,101551.22
2023-02-28T17:45:25.956Z,101552.91
2023-02-28T17:48:28.820Z,101557.16
2023-02-28T17:51:31.553Z,101548.59
2023-02-28T17:54:34.155Z,101550.22
2023-02-28T17:57:36.544Z,101553.66
2023-02-28T18:00:39.461Z,101554.56
2023-02-28T18:03:42.281Z,101558.81
2023-02-28T18:06:48.506Z,101563.09
2023-02-28T18:09:51.133Z,101565.72
2023-02-28T18:12:54.885Z,101558.87
2023-02-28T18:15:57.631Z,101564.00
2023-02-28T18:19:00.227Z,101568.28
2023-02-28T18:22:02.881Z,101569.13
2023-02-28T18:25:05.882Z,101562.22
2023-02-28T18:28:08.649Z,101569.97
2023-02-28T18:31:13.054Z,101569.97
2023-02-28T18:34:16.447Z,101569.06
2023-02-28T18:37:19.152Z,101569.97
2023-02-28T18:40:21.897Z,101570.81
2023-02-28T18:43:24.360Z,101569.13
2023-02-28T18:46:26.996Z,101570.88
2023-02-28T18:49:31.738Z,101569.16
2023-02-28T18:52:34.397Z,101577.72
2023-02-28T18:55:36.986Z,101575.09
2023-02-28T18:58:40.186Z,101576.00
2023-02-28T19:01:42.652Z,101578.53
2023-02-28T19:04:45.494Z,101575.97
2023-02-28T19:07:48.292Z,101575.03
2023-02-28T19:10:51.182Z,101563.03
2023-02-28T19:13:53.703Z,101569.09
2023-02-28T19:16:56.586Z,101569.94
2023-02-28T19:19:59.125Z,101569.03
2023-02-28T19:23:02.296Z,101571.63
2023-02-28T19:26:08.752Z,101575.97
2023-02-28T19:29:11.455Z,101574.12
2023-02-28T19:32:13.863Z,101570.66
2023-02-28T19:35:16.808Z,101573.25
2023-02-28T19:38:19.276Z,101568.94
2023-02-28T19:41:22.099Z,101560.41
2023-02-28T19:44:24.554Z,101570.72
2023-02-28T19:47:27.733Z,101568.97
2023-02-28T19:50:30.747Z,101570.69
2023-02-28T19:53:34.103Z,101571.56
2023-02-28T19:56:36.422Z,101567.28
2023-02-28T19:59:40.161Z,101582.78
2023-02-28T20:02:43.867Z,101574.12
2023-02-28T20:05:47.030Z,101570.69
2023-02-28T20:08:49.611Z,101570.72
2023-02-28T20:11:52.331Z,101572.50
2023-02-28T20:14:58.142Z,101577.53
2023-02-28T20:18:00.960Z,101570.69
2023-02-28T20:21:03.533Z,101569.91
2023-02-28T20:24:06.340Z,101578.44
2023-02-28T20:27:09.011Z,101572.53
2023-02-28T20:30:12.332Z,101568.22
2023-02-28T20:33:16.283Z,101577.62
2023-02-28T20:36:21.244Z,101563.88
2023-02-28T20:39:23.897Z,101578.47
2023-02-28T20:42:26.682Z,101570.72
2023-02-28T20:45:29.366Z,101568.97
2023-02-28T20:48:32.592Z,101570.88
2023-02-28T20:51:39.891Z,101570.88
2023-02-28T20:54:42.657Z,101567.44
2023-02-28T20:57:45.082Z,101563.97
2023-02-28T21:00:48.734Z,101571.72
2023-02-28T21:03:54.249Z,101560.44
2023-02-28T21:06:56.868Z,101560.50
2023-02-28T21:09:59.301Z,101568.16
2023-02-28T21:13:02.119Z,101564.66
2023-02-28T21:16:05.733Z,101562.94
2023-02-28T21:19:09.048Z,101554.34
2023-02-28T21:22:12.049Z,101553.47
2023-02-28T21:25:15.030Z,101556.84
2023-02-28T21:28:17.573Z,101560.31
2023-02-28T21:31:20.980Z,101560.31
2023-02-28T21:34:23.620Z,101548.25
2023-02-28T21:37:26.241Z,101538.81
2023-02-28T21:40:29.186Z,101550.00
2023-02-28T21:43:31.995Z,101556.06
2023-02-28T21:46:35.048Z,101558.63
2023-02-28T21:49:39.172Z,101557.75
2023-02-28T21:52:45.245Z,101551.75
2023-02-28T21:55:47.796Z,101549.25
2023-02-28T21:58:50.522Z,101547.50
2023-02-28T22:01:55.164Z,101551.78
2023-02-28T22:05:03.451Z,101551.81
2023-02-28T22:08:05.816Z,101549.19
2023-02-28T22:11:09.796Z,101563.81
2023-02-28T22:14:12.675Z,101554.38
2023-02-28T22:17:15.307Z,101551.78
2023-02-28T22:20:17.878Z,101551.78
2023-02-28T22:23:20.473Z,101548.41
2023-02-28T22:26:22.888Z,101550.97
2023-02-28T22:29:25.757Z,101557.84
2023-02-28T22:32:28.091Z,101551.81
2023-02-28T22:35:30.665Z,101553.62
2023-02-28T22:38:35.401Z,101552.72
2023-02-28T22:41:38.538Z,101561.31
2023-02-28T22:44:41.059Z,101563.94
2023-02-28T22:47:43.621Z,101559.66
2023-02-28T22:50:46.172Z,101563.06
2023-02-28T22:53:49.436Z,101566.47
2023-02-28T22:56:51.715Z,101559.63
2023-02-28T22:59:54.471Z,101563.03
2023-02-28T23:02:56.746Z,101558.72
2023-02-28T23:05:59.509Z,101553.56
2023-02-28T23:09:04.839Z,101555.25
2023-02-28T23:12:07.682Z,101556.16
2023-02-28T23:15:11.438Z,101563.91
2023-02-28T23:18:15.572Z,101560.53
2023-02-28T23:21:17.898Z,101555.31
2023-02-28T23:24:24.781Z,101556.94
2023-02-28T23:27:27.176Z,101556.09
2023-02-28T23:30:30.413Z,101556.09
2023-02-28T23:33:33.261Z,101555.34
2023-02-28T23:36:37.356Z,101553.47
2023-02-28T23:39:41.506Z,101545.66
2023-02-28T23:42:44.885Z,101548.28
2023-02-28T23:45:54.436Z,101541.41
2023-02-28T23:48:58.452Z,101541.50
2023-02-28T23:52:00.958Z,101543.13
2023-02-28T23:55:03.623Z,101548.22
2023-02-28T23:58:05.931Z,101549.16
